createdAt,value
2017-11-30T00:02:06.371Z,43.13
2017-11-30T00:04:36.922Z,51.43
2017-11-30T00:07:07.758Z,41.03
2017-11-30T00:09:39.082Z,37.20
2017-11-30T00:12:10.079Z,35.87
2017-11-30T00:14:40.341Z,36.50
2017-11-30T00:17:11.785Z,40.47
2017-11-30T00:19:42.272Z,40.57
2017-11-30T00:22:14.715Z,41.27
2017-11-30T00:24:45.277Z,39.83
2017-11-30T00:27:17.486Z,54.70
2017-11-30T00:29:47.720Z,40.50
2017-11-30T00:32:19.428Z,52.27
2017-11-30T00:34:50.062Z,47.67
2017-11-30T00:37:21.362Z,40.93
2017-11-30T00:39:51.931Z,46.90
2017-11-30T00:42:31.674Z,42.73
2017-11-30T00:45:02.363Z,42.80
2017-11-30T00:47:32.618Z,37.50
2017-11-30T00:50:03.738Z,41.10
2017-11-30T00:52:34.107Z,45.23
2017-11-30T00:55:05.088Z,40.73
2017-11-30T00:57:36.071Z,45.20
2017-11-30T01:00:06.362Z,50.60
2017-11-30T01:02:37.710Z,39.07
2017-11-30T01:05:08.273Z,39.53
2017-11-30T01:07:39.064Z,55.70
2017-11-30T01:10:09.430Z,41.07
2017-11-30T01:12:40.852Z,50.73
2017-11-30T01:15:11.477Z,58.03
2017-11-30T01:17:42.178Z,41.83
2017-11-30T01:20:21.156Z,49.77
2017-11-30T01:22:52.587Z,37.03
2017-11-30T01:25:22.766Z,48.53
2017-11-30T01:27:53.584Z,48.60
2017-11-30T01:30:23.756Z,48.77
2017-11-30T01:32:54.694Z,47.43
2017-11-30T01:35:25.590Z,51.17
2017-11-30T01:37:56.296Z,55.43
2017-11-30T01:40:26.729Z,44.70
2017-11-30T01:42:57.453Z,52.50
2017-11-30T01:45:28.433Z,59.67
2017-11-30T01:47:59.719Z,45.17
2017-11-30T01:50:30.278Z,56.40
2017-11-30T01:53:01.067Z,50.03
2017-11-30T01:55:32.194Z,49.50
2017-11-30T01:58:02.609Z,56.80
2017-11-30T02:00:33.039Z,50.60
2017-11-30T02:03:03.632Z,52.60
2017-11-30T02:05:36.100Z,54.67
2017-11-30T02:08:07.803Z,47.33
2017-11-30T02:10:38.257Z,39.13
2017-11-30T02:13:09.297Z,47.50
2017-11-30T02:15:40.567Z,47.83
2017-11-30T02:18:11.230Z,48.80
2017-11-30T02:32:17.265Z,41.80
2017-11-30T02:34:49.079Z,47.10
2017-11-30T02:37:22.102Z,56.53
2017-11-30T02:39:53.025Z,47.23
2017-11-30T02:42:24.353Z,56.43
2017-11-30T02:44:55.196Z,57.93
2017-11-30T02:47:26.935Z,81.43
2017-11-30T02:49:57.311Z,56.30
2017-11-30T02:52:27.834Z,55.90
2017-11-30T02:54:59.456Z,66.53
2017-11-30T02:57:30.653Z,67.77
2017-11-30T03:00:00.932Z,53.80
2017-11-30T03:02:31.337Z,62.13
2017-11-30T03:05:01.601Z,65.03
2017-11-30T03:07:33.746Z,79.27
2017-11-30T03:10:04.136Z,64.63
2017-11-30T03:12:34.372Z,55.83
2017-11-30T03:15:04.594Z,81.20
2017-11-30T03:17:34.930Z,60.60
2017-11-30T03:20:05.352Z,78.30
2017-11-30T03:22:45.302Z,64.10
2017-11-30T03:25:16.617Z,57.03
2017-11-30T03:27:46.969Z,61.10
2017-11-30T03:30:17.489Z,58.17
2017-11-30T03:32:47.715Z,69.00
2017-11-30T03:35:17.962Z,72.77
2017-11-30T03:37:48.625Z,73.20
2017-11-30T03:40:19.155Z,54.07
2017-11-30T03:42:49.422Z,55.90
2017-11-30T03:45:19.633Z,80.90
2017-11-30T03:47:49.905Z,75.10
2017-11-30T03:50:21.422Z,65.90
2017-11-30T03:52:51.599Z,41.60
2017-11-30T03:55:22.617Z,69.17
2017-11-30T03:57:52.938Z,53.03
2017-11-30T04:00:23.372Z,55.67
2017-11-30T04:02:53.605Z,49.37
2017-11-30T04:05:24.161Z,52.53
2017-11-30T04:07:55.341Z,54.60
2017-11-30T04:10:25.738Z,66.93
2017-11-30T04:12:56.003Z,56.63
2017-11-30T04:15:26.669Z,52.30
2017-11-30T04:17:57.770Z,61.40
2017-11-30T04:20:28.145Z,53.67
2017-11-30T04:23:03.269Z,52.90
2017-11-30T04:25:36.847Z,49.87
2017-11-30T04:28:09.150Z,53.33
2017-11-30T04:30:42.758Z,44.83
2017-11-30T04:33:13.113Z,51.30
2017-11-30T04:35:43.692Z,52.77
2017-11-30T04:38:13.925Z,54.10
2017-11-30T04:40:45.157Z,69.60
2017-11-30T04:43:15.305Z,48.53
2017-11-30T04:45:45.535Z,54.23
2017-11-30T04:48:17.014Z,47.73
2017-11-30T04:50:47.225Z,59.63
2017-11-30T04:53:17.599Z,52.10
2017-11-30T04:55:47.818Z,45.97
2017-11-30T04:58:18.018Z,55.60
2017-11-30T05:00:48.448Z,46.57
2017-11-30T05:03:18.822Z,56.03
2017-11-30T05:05:49.569Z,49.10
2017-11-30T05:08:19.957Z,54.60
2017-11-30T05:10:50.538Z,55.40
2017-11-30T05:13:20.813Z,41.30
2017-11-30T05:15:51.941Z,55.37
2017-11-30T05:18:22.348Z,55.70
2017-11-30T05:20:52.729Z,49.93
2017-11-30T05:23:23.802Z,44.37
2017-11-30T05:26:00.768Z,47.53
2017-11-30T05:28:32.331Z,51.43
2017-11-30T05:31:02.885Z,61.27
2017-11-30T05:33:33.441Z,49.90
2017-11-30T05:36:03.840Z,53.83
2017-11-30T05:38:34.058Z,49.40
2017-11-30T05:41:04.558Z,46.20
2017-11-30T05:43:34.924Z,49.10
2017-11-30T05:46:05.207Z,45.70
2017-11-30T05:48:36.439Z,49.93
2017-11-30T05:51:06.929Z,40.40
2017-11-30T05:53:37.370Z,44.80
2017-11-30T05:56:07.691Z,47.83
2017-11-30T05:58:38.106Z,46.73
2017-11-30T06:01:08.533Z,43.67
2017-11-30T06:03:38.950Z,55.70
2017-11-30T06:06:09.499Z,55.43
2017-11-30T06:08:39.990Z,42.07
2017-11-30T06:11:10.330Z,47.67
2017-11-30T06:13:40.646Z,52.20
2017-11-30T06:16:10.921Z,59.13
2017-11-30T06:21:08.800Z,52.13
2017-11-30T06:23:39.166Z,56.93
2017-11-30T06:26:10.470Z,43.33
2017-11-30T06:28:46.980Z,40.80
2017-11-30T06:31:17.576Z,40.20
2017-11-30T06:33:48.292Z,40.03
2017-11-30T06:36:18.668Z,45.67
2017-11-30T06:38:50.027Z,46.40
2017-11-30T06:41:22.633Z,40.53
2017-11-30T06:43:54.896Z,45.60
2017-11-30T06:46:25.631Z,43.57
2017-11-30T06:48:56.140Z,39.13
2017-11-30T06:51:27.455Z,44.53
2017-11-30T06:53:59.327Z,38.67
2017-11-30T06:56:31.040Z,46.97
2017-11-30T06:59:01.722Z,48.30
2017-11-30T07:01:32.114Z,43.90
2017-11-30T07:04:03.917Z,51.27
2017-11-30T07:06:34.304Z,44.10
2017-11-30T07:09:05.705Z,49.60
2017-11-30T07:11:36.103Z,46.23
2017-11-30T07:14:10.615Z,41.43
2017-11-30T07:16:41.543Z,50.80
2017-11-30T07:19:12.222Z,50.57
2017-11-30T07:21:42.463Z,47.93
2017-11-30T07:24:13.286Z,47.23
2017-11-30T07:26:43.630Z,53.47
2017-11-30T07:29:20.890Z,42.60
2017-11-30T07:31:53.698Z,46.33
2017-11-30T07:34:24.230Z,44.33
2017-11-30T07:36:55.671Z,44.47
2017-11-30T07:39:27.441Z,51.27
2017-11-30T07:41:57.753Z,41.53
2017-11-30T07:44:28.031Z,47.13
2017-11-30T07:46:58.412Z,45.73
2017-11-30T07:49:28.953Z,45.83
2017-11-30T07:52:00.470Z,42.20
2017-11-30T07:54:31.243Z,44.53
2017-11-30T07:57:02.484Z,35.53
2017-11-30T07:59:32.840Z,46.93
2017-11-30T08:02:04.626Z,46.57
2017-11-30T08:04:35.047Z,43.67
2017-11-30T08:07:05.985Z,41.43
2017-11-30T08:09:36.784Z,38.77
2017-11-30T08:12:08.134Z,41.60
2017-11-30T08:14:39.616Z,39.30
2017-11-30T08:17:10.262Z,43.90
2017-11-30T08:19:40.547Z,33.27
2017-11-30T08:22:10.978Z,46.20
2017-11-30T08:24:42.196Z,28.63
2017-11-30T08:27:13.739Z,55.70
2017-11-30T08:29:44.703Z,39.90
2017-11-30T08:32:23.638Z,48.63
2017-11-30T08:34:54.371Z,40.50
2017-11-30T08:37:24.873Z,41.17
2017-11-30T08:39:55.499Z,42.07
2017-11-30T08:42:26.903Z,47.57
2017-11-30T08:44:57.457Z,46.60
2017-11-30T08:47:29.239Z,42.93
2017-11-30T08:50:00.598Z,43.93
2017-11-30T08:52:31.064Z,47.90
2017-11-30T08:55:01.673Z,44.60
2017-11-30T08:57:32.585Z,52.20
2017-11-30T09:00:03.991Z,42.07
2017-11-30T09:02:34.675Z,44.10
2017-11-30T09:05:05.791Z,47.30
2017-11-30T09:07:36.463Z,46.27
2017-11-30T09:10:07.178Z,49.23
2017-11-30T09:12:38.381Z,41.97
2017-11-30T09:15:08.839Z,37.23
2017-11-30T09:17:40.346Z,43.77
2017-11-30T09:20:10.874Z,50.20
2017-11-30T09:22:41.772Z,49.50
2017-11-30T09:25:12.734Z,49.10
2017-11-30T09:27:43.225Z,48.40
2017-11-30T09:30:13.796Z,41.07
2017-11-30T09:32:52.369Z,46.07
2017-11-30T09:35:24.397Z,41.77
2017-11-30T09:37:57.039Z,57.23
2017-11-30T09:40:27.294Z,43.93
2017-11-30T09:42:57.779Z,50.47
2017-11-30T09:45:28.100Z,55.80
2017-11-30T09:47:59.854Z,44.13
2017-11-30T09:50:30.927Z,40.10
2017-11-30T09:53:01.403Z,35.50
2017-11-30T09:55:32.027Z,38.60
2017-11-30T09:58:02.370Z,44.77
2017-11-30T10:00:33.533Z,38.17
2017-11-30T10:03:04.052Z,38.63
2017-11-30T10:05:35.263Z,42.67
2017-11-30T10:08:05.798Z,33.70
2017-11-30T10:10:36.364Z,34.70
2017-11-30T10:13:06.907Z,30.67
2017-11-30T10:15:38.443Z,35.30
2017-11-30T10:18:09.307Z,39.70
2017-11-30T10:20:39.650Z,31.97
2017-11-30T10:23:10.270Z,35.93
2017-11-30T10:25:40.873Z,25.40
2017-11-30T10:28:11.822Z,27.27
2017-11-30T10:30:42.741Z,24.93
2017-11-30T10:33:13.388Z,28.43
2017-11-30T10:35:52.905Z,26.60
2017-11-30T10:38:24.299Z,28.07
2017-11-30T10:40:54.855Z,31.53
2017-11-30T10:43:25.507Z,27.10
2017-11-30T10:45:56.771Z,22.87
2017-11-30T10:48:29.505Z,24.53
2017-11-30T10:50:59.998Z,30.70
2017-11-30T10:53:30.779Z,21.60
2017-11-30T10:56:01.180Z,23.47
2017-11-30T10:58:31.770Z,21.93
2017-11-30T11:01:03.577Z,27.57
2017-11-30T11:03:34.074Z,27.70
2017-11-30T11:06:04.418Z,31.57
2017-11-30T11:08:34.800Z,24.00
2017-11-30T11:11:05.096Z,22.80
2017-11-30T11:13:35.578Z,28.50
2017-11-30T11:16:06.017Z,22.77
2017-11-30T11:18:38.100Z,31.53
2017-11-30T11:21:08.489Z,27.10
2017-11-30T11:23:38.857Z,23.77
2017-11-30T11:26:09.217Z,30.30
2017-11-30T11:28:39.559Z,33.70
2017-11-30T11:31:10.177Z,23.13
2017-11-30T11:33:40.483Z,29.00
2017-11-30T11:36:10.760Z,29.57
2017-11-30T11:38:41.323Z,30.03
2017-11-30T11:41:12.816Z,35.87
2017-11-30T11:43:43.069Z,31.80
2017-11-30T11:46:13.776Z,29.60
2017-11-30T11:48:44.321Z,33.50
2017-11-30T11:51:14.791Z,29.87
2017-11-30T11:53:46.850Z,37.83
2017-11-30T11:56:18.693Z,36.57
2017-11-30T11:58:49.211Z,26.43
2017-11-30T12:01:19.814Z,29.10
2017-11-30T12:03:50.209Z,30.77
2017-11-30T12:06:20.719Z,37.23
2017-11-30T12:08:53.522Z,31.37
2017-11-30T12:11:23.935Z,32.50
2017-11-30T12:13:54.719Z,34.57
2017-11-30T12:16:26.178Z,33.23
2017-11-30T12:18:56.690Z,38.00
2017-11-30T12:21:28.716Z,28.73
2017-11-30T12:23:59.336Z,35.97
2017-11-30T12:26:30.695Z,29.17
2017-11-30T12:29:01.689Z,34.53
2017-11-30T12:31:35.127Z,32.93
2017-11-30T12:34:07.215Z,35.77
2017-11-30T12:36:39.132Z,22.97
2017-11-30T12:39:14.873Z,34.27
2017-11-30T12:41:47.457Z,32.03
2017-11-30T12:44:19.729Z,29.23
2017-11-30T12:46:50.105Z,30.83
2017-11-30T12:49:20.935Z,33.67
2017-11-30T12:51:51.439Z,30.47
2017-11-30T12:54:23.019Z,25.07
2017-11-30T12:56:53.882Z,34.33
2017-11-30T12:59:25.720Z,39.93
2017-11-30T13:01:56.303Z,28.43
2017-11-30T13:04:27.085Z,31.97
2017-11-30T13:06:58.079Z,29.10
2017-11-30T13:09:30.977Z,27.70
2017-11-30T13:12:01.861Z,35.27
2017-11-30T13:14:32.993Z,27.63
2017-11-30T13:17:04.107Z,30.17
2017-11-30T13:19:35.040Z,30.03
2017-11-30T13:22:07.524Z,32.33
2017-11-30T13:24:37.943Z,30.87
2017-11-30T13:27:08.299Z,30.97
2017-11-30T13:29:39.011Z,27.57
2017-11-30T13:32:09.662Z,30.00
2017-11-30T13:34:40.421Z,44.27
2017-11-30T13:37:10.798Z,43.40
2017-11-30T13:39:41.728Z,36.13
2017-11-30T13:42:12.155Z,33.20
2017-11-30T13:44:42.679Z,37.83
2017-11-30T13:47:12.986Z,46.60
2017-11-30T13:49:43.976Z,36.97
2017-11-30T13:52:15.817Z,36.83
2017-11-30T13:54:46.237Z,44.10
2017-11-30T13:57:16.775Z,37.63
2017-11-30T13:59:47.220Z,49.83
2017-11-30T14:02:18.936Z,37.47
2017-11-30T14:04:49.593Z,33.93
2017-11-30T14:07:23.476Z,35.10
2017-11-30T14:09:56.256Z,48.17
2017-11-30T14:12:28.255Z,39.53
2017-11-30T14:15:00.403Z,42.87
2017-11-30T14:17:31.268Z,39.90
2017-11-30T14:20:02.205Z,32.70
2017-11-30T14:22:33.080Z,39.93
2017-11-30T14:25:04.531Z,29.63
2017-11-30T14:27:35.243Z,41.10
2017-11-30T14:30:06.333Z,33.60
2017-11-30T14:32:36.725Z,38.70
2017-11-30T14:35:08.052Z,43.87
2017-11-30T14:37:41.619Z,34.00
2017-11-30T14:40:12.550Z,30.00
2017-11-30T14:42:51.739Z,38.10
2017-11-30T14:45:23.100Z,36.97
2017-11-30T14:47:55.134Z,37.83
2017-11-30T14:50:27.065Z,42.87
2017-11-30T14:52:58.409Z,35.23
2017-11-30T14:55:28.872Z,39.57
2017-11-30T14:58:03.178Z,29.73
2017-11-30T15:00:34.488Z,78.73
2017-11-30T15:03:04.888Z,47.97
2017-11-30T15:05:35.858Z,35.67
2017-11-30T15:08:06.530Z,34.73
2017-11-30T15:10:37.343Z,35.23
2017-11-30T15:13:08.147Z,33.47
2017-11-30T15:15:38.800Z,30.97
2017-11-30T15:18:09.420Z,29.50
2017-11-30T15:20:41.425Z,31.40
2017-11-30T15:23:12.818Z,27.40
2017-11-30T15:25:43.433Z,34.93
2017-11-30T15:28:14.289Z,42.83
2017-11-30T15:30:45.240Z,29.07
2017-11-30T15:33:16.370Z,38.73
2017-11-30T15:35:49.533Z,32.63
2017-11-30T15:38:20.227Z,34.73
2017-11-30T15:40:51.108Z,28.53
2017-11-30T15:43:21.776Z,33.73
2017-11-30T15:45:52.822Z,29.37
2017-11-30T15:48:23.922Z,32.47
2017-11-30T15:50:54.901Z,43.70
2017-11-30T15:53:25.342Z,34.13
2017-11-30T15:55:56.008Z,29.07
2017-11-30T15:58:26.563Z,30.77
2017-11-30T16:00:57.408Z,27.80
2017-11-30T16:03:28.458Z,33.23
2017-11-30T16:05:59.939Z,30.13
2017-11-30T16:08:30.823Z,34.93
2017-11-30T16:11:01.580Z,28.83
2017-11-30T16:13:32.337Z,34.70
2017-11-30T16:16:03.146Z,32.20
2017-11-30T16:18:35.465Z,24.50
2017-11-30T16:21:06.612Z,27.90
2017-11-30T16:23:38.820Z,27.90
2017-11-30T16:26:10.800Z,27.37
2017-11-30T16:28:43.139Z,19.53
2017-11-30T16:31:13.612Z,14.77
2017-11-30T16:33:44.079Z,14.20
2017-11-30T16:36:15.725Z,11.77
2017-11-30T16:38:47.190Z,9.50
2017-11-30T16:41:20.186Z,10.97
2017-11-30T16:43:51.036Z,9.20
2017-11-30T16:46:29.485Z,7.50
2017-11-30T16:49:01.524Z,17.67
2017-11-30T16:54:35.429Z,7.07
2017-11-30T16:57:08.109Z,8.60
2017-11-30T16:59:42.242Z,8.30
2017-11-30T17:02:14.010Z,6.83
2017-11-30T17:04:45.763Z,9.47
2017-11-30T17:08:46.132Z,5.00
2017-11-30T17:11:17.436Z,6.27
2017-11-30T17:13:48.627Z,5.27
2017-11-30T17:16:19.880Z,6.17
2017-11-30T17:18:51.497Z,7.23
2017-11-30T17:21:22.729Z,8.03
2017-11-30T17:23:54.031Z,6.33
2017-11-30T17:26:25.180Z,5.47
2017-11-30T17:28:56.233Z,6.70
2017-11-30T17:31:28.012Z,4.93
2017-11-30T17:34:00.304Z,5.83
2017-11-30T17:36:31.537Z,7.30
2017-11-30T17:39:03.536Z,2.57
2017-11-30T17:41:34.922Z,6.83
2017-11-30T17:44:05.914Z,3.37
2017-11-30T17:46:38.051Z,2.50
2017-11-30T17:49:19.597Z,4.07
2017-11-30T17:51:52.163Z,3.63
2017-11-30T17:54:24.013Z,2.50
2017-11-30T17:56:57.657Z,2.80
2017-11-30T17:59:28.653Z,3.60
2017-11-30T18:02:01.489Z,4.97
2017-11-30T18:04:34.605Z,3.00
2017-11-30T18:07:05.431Z,2.67
2017-11-30T18:09:38.593Z,4.27
2017-11-30T18:12:10.648Z,3.87
2017-11-30T18:14:41.912Z,4.93
2017-11-30T18:17:13.036Z,3.03
2017-11-30T18:19:43.871Z,4.60
2017-11-30T18:22:15.439Z,6.80
2017-11-30T18:24:47.009Z,4.70
2017-11-30T18:27:18.035Z,9.30
2017-11-30T18:29:48.733Z,16.80
2017-11-30T18:32:26.966Z,14.43
2017-11-30T18:35:05.063Z,12.90
2017-11-30T18:37:41.555Z,11.13
2017-11-30T18:40:20.835Z,21.30
2017-11-30T18:42:57.607Z,23.27
2017-11-30T18:45:37.211Z,19.73
2017-11-30T18:48:13.062Z,14.90
2017-11-30T18:50:55.162Z,21.23
2017-11-30T18:55:02.064Z,26.00
2017-11-30T18:57:33.144Z,20.97
2017-11-30T19:00:04.747Z,21.13
2017-11-30T19:02:35.371Z,25.00
2017-11-30T19:05:05.893Z,19.40
2017-11-30T19:07:36.927Z,20.83
2017-11-30T19:10:07.609Z,23.87
2017-11-30T19:12:39.462Z,26.70
2017-11-30T19:15:13.233Z,17.43
2017-11-30T19:17:44.275Z,20.10
2017-11-30T19:20:14.901Z,24.47
2017-11-30T19:22:46.160Z,22.77
2017-11-30T19:25:18.363Z,25.30
2017-11-30T19:27:49.719Z,19.03
2017-11-30T19:30:20.612Z,21.07
2017-11-30T19:32:52.154Z,20.43
2017-11-30T19:35:23.530Z,29.23
2017-11-30T19:37:54.813Z,21.50
2017-11-30T19:40:25.787Z,20.40
2017-11-30T19:42:57.000Z,18.20
2017-11-30T19:45:27.964Z,19.40
2017-11-30T19:47:59.154Z,15.67
2017-11-30T19:50:30.172Z,17.53
2017-11-30T19:53:08.197Z,18.73
2017-11-30T19:55:39.822Z,25.20
2017-11-30T19:58:11.067Z,17.20
2017-11-30T20:00:42.498Z,13.80
2017-11-30T20:03:14.595Z,14.27
2017-11-30T20:05:45.405Z,21.60
2017-11-30T20:08:16.766Z,16.63
2017-11-30T20:10:47.695Z,18.47
2017-11-30T20:13:18.966Z,17.80
2017-11-30T20:15:50.177Z,18.33
2017-11-30T20:18:22.933Z,18.13
2017-11-30T20:20:54.153Z,19.50
2017-11-30T20:23:24.742Z,14.33
2017-11-30T20:25:56.404Z,16.03
2017-11-30T20:28:28.657Z,27.93
2017-11-30T20:30:59.921Z,18.70
2017-11-30T20:33:31.554Z,20.13
2017-11-30T20:36:02.110Z,15.63
2017-11-30T20:45:18.846Z,13.63
2017-11-30T20:47:51.057Z,17.53
2017-11-30T20:50:22.763Z,19.30
2017-11-30T20:52:54.236Z,14.70
2017-11-30T20:55:33.961Z,15.40
2017-11-30T20:58:05.920Z,18.13
2017-11-30T21:00:36.840Z,19.60
2017-11-30T21:03:11.242Z,15.57
2017-11-30T21:05:41.804Z,13.80
2017-11-30T21:08:12.653Z,18.70
2017-11-30T21:10:44.981Z,17.83
2017-11-30T21:13:16.321Z,14.27
2017-11-30T21:15:47.491Z,19.93
2017-11-30T21:18:17.987Z,18.20
2017-11-30T21:20:49.583Z,19.10
2017-11-30T21:23:20.333Z,14.50
2017-11-30T21:25:51.233Z,15.70
2017-11-30T21:28:23.492Z,19.30
2017-11-30T21:30:54.070Z,20.57
2017-11-30T21:33:25.616Z,16.47
2017-11-30T21:35:59.306Z,26.83
2017-11-30T21:38:32.177Z,20.37
2017-11-30T21:41:03.531Z,11.67
2017-11-30T21:43:34.982Z,19.27
2017-11-30T21:46:05.785Z,21.50
2017-11-30T21:48:36.176Z,15.80
2017-11-30T21:51:08.538Z,15.93
2017-11-30T21:53:39.956Z,21.77
2017-11-30T21:56:20.643Z,26.07
2017-11-30T21:58:53.714Z,20.13
2017-11-30T22:01:25.834Z,15.37
2017-11-30T22:03:57.026Z,13.90
2017-11-30T22:06:28.090Z,20.30
2017-11-30T22:08:58.946Z,19.17
2017-11-30T22:11:30.869Z,20.73
2017-11-30T22:14:01.941Z,23.33
2017-11-30T22:16:33.350Z,17.70
2017-11-30T22:19:04.324Z,28.10
2017-11-30T22:21:34.896Z,25.40
2017-11-30T22:24:05.985Z,17.47
2017-11-30T22:26:37.145Z,18.23
2017-11-30T22:29:08.753Z,21.87
2017-11-30T22:31:40.413Z,21.43
2017-11-30T22:34:10.884Z,25.27
2017-11-30T22:36:43.304Z,22.90
2017-11-30T22:39:14.359Z,25.00
2017-11-30T22:41:45.153Z,34.00
2017-11-30T22:44:16.750Z,20.50
2017-11-30T22:46:48.246Z,27.00
2017-11-30T22:49:20.566Z,25.47
2017-11-30T22:51:51.401Z,26.37
2017-11-30T22:54:22.834Z,31.67
2017-11-30T22:56:54.211Z,25.70
2017-11-30T22:59:25.925Z,30.37
2017-11-30T23:01:57.913Z,26.97
2017-11-30T23:04:29.995Z,29.20
2017-11-30T23:07:01.559Z,27.37
2017-11-30T23:09:34.318Z,28.50
2017-11-30T23:12:04.936Z,27.43
2017-11-30T23:14:36.308Z,31.50
2017-11-30T23:17:06.721Z,24.67
2017-11-30T23:19:37.911Z,34.43
2017-11-30T23:22:08.494Z,36.00
2017-11-30T23:24:39.616Z,28.47
2017-11-30T23:27:10.070Z,27.43
2017-11-30T23:29:41.010Z,30.30
2017-11-30T23:32:12.484Z,29.03
2017-11-30T23:34:44.394Z,27.13
2017-11-30T23:37:15.810Z,23.10
2017-11-30T23:39:48.135Z,27.07
2017-11-30T23:42:19.392Z,23.53
2017-11-30T23:44:50.729Z,28.17
2017-11-30T23:47:21.314Z,21.07
2017-11-30T23:49:51.704Z,37.00
2017-11-30T23:52:22.662Z,25.90
2017-11-30T23:54:53.827Z,20.97
2017-11-30T23:57:25.417Z,21.63
